sensor_id;sensor_type;location;lat;lon;timestamp;P1;durP1;ratioP1;P2;durP2;ratioP2
10727;SDS011;5415;59.322;18.246;2022-08-21T00:00:46;6.03;;;1.90;;
10727;SDS011;5415;59.322;18.246;2022-08-21T00:03:14;6.57;;;2.10;;
10727;SDS011;5415;59.322;18.246;2022-08-21T00:05:46;5.90;;;1.77;;
10727;SDS011;5415;59.322;18.246;2022-08-21T00:08:14;6.57;;;2.13;;
10727;SDS011;5415;59.322;18.246;2022-08-21T00:10:44;4.83;;;1.90;;
10727;SDS011;5415;59.322;18.246;2022-08-21T00:13:12;5.97;;;2.03;;
10727;SDS011;5415;59.322;18.246;2022-08-21T00:15:40;8.03;;;2.30;;
10727;SDS011;5415;59.322;18.246;2022-08-21T00:18:08;5.50;;;2.10;;
10727;SDS011;5415;59.322;18.246;2022-08-21T00:20:37;8.40;;;2.00;;
10727;SDS011;5415;59.322;18.246;2022-08-21T00:23:07;6.67;;;1.97;;
10727;SDS011;5415;59.322;18.246;2022-08-21T00:25:35;11.37;;;2.17;;
10727;SDS011;5415;59.322;18.246;2022-08-21T00:28:02;5.93;;;2.27;;
10727;SDS011;5415;59.322;18.246;2022-08-21T00:30:31;4.77;;;2.03;;
10727;SDS011;5415;59.322;18.246;2022-08-21T00:33:01;8.70;;;2.10;;
10727;SDS011;5415;59.322;18.246;2022-08-21T00:35:30;4.70;;;2.00;;
10727;SDS011;5415;59.322;18.246;2022-08-21T00:37:58;6.80;;;2.00;;
10727;SDS011;5415;59.322;18.246;2022-08-21T00:40:29;6.03;;;2.17;;
10727;SDS011;5415;59.322;18.246;2022-08-21T00:42:57;5.67;;;2.27;;
10727;SDS011;5415;59.322;18.246;2022-08-21T00:45:24;9.63;;;2.27;;
10727;SDS011;5415;59.322;18.246;2022-08-21T00:47:53;7.30;;;2.03;;
10727;SDS011;5415;59.322;18.246;2022-08-21T00:50:22;5.40;;;1.93;;
10727;SDS011;5415;59.322;18.246;2022-08-21T00:52:52;5.30;;;1.90;;
10727;SDS011;5415;59.322;18.246;2022-08-21T00:55:20;7.70;;;1.93;;
10727;SDS011;5415;59.322;18.246;2022-08-21T00:57:51;5.30;;;1.77;;
10727;SDS011;5415;59.322;18.246;2022-08-21T01:00:20;6.50;;;1.97;;
10727;SDS011;5415;59.322;18.246;2022-08-21T01:02:48;5.47;;;1.80;;
10727;SDS011;5415;59.322;18.246;2022-08-21T01:05:15;6.27;;;1.80;;
10727;SDS011;5415;59.322;18.246;2022-08-21T01:07:43;4.93;;;2.30;;
10727;SDS011;5415;59.322;18.246;2022-08-21T01:10:11;6.93;;;2.13;;
10727;SDS011;5415;59.322;18.246;2022-08-21T01:12:39;7.37;;;1.90;;
10727;SDS011;5415;59.322;18.246;2022-08-21T01:15:09;5.43;;;1.87;;
10727;SDS011;5415;59.322;18.246;2022-08-21T01:17:37;7.40;;;2.33;;
10727;SDS011;5415;59.322;18.246;2022-08-21T01:20:07;6.90;;;1.90;;
10727;SDS011;5415;59.322;18.246;2022-08-21T01:22:37;6.60;;;1.90;;
10727;SDS011;5415;59.322;18.246;2022-08-21T01:25:06;8.30;;;2.13;;
10727;SDS011;5415;59.322;18.246;2022-08-21T01:27:34;10.57;;;2.00;;
10727;SDS011;5415;59.322;18.246;2022-08-21T01:30:04;5.20;;;2.17;;
10727;SDS011;5415;59.322;18.246;2022-08-21T01:32:34;8.77;;;2.30;;
10727;SDS011;5415;59.322;18.246;2022-08-21T01:35:05;4.10;;;1.90;;
10727;SDS011;5415;59.322;18.246;2022-08-21T01:37:33;5.50;;;2.00;;
10727;SDS011;5415;59.322;18.246;2022-08-21T01:40:03;4.03;;;1.80;;
10727;SDS011;5415;59.322;18.246;2022-08-21T01:42:30;3.60;;;1.77;;
10727;SDS011;5415;59.322;18.246;2022-08-21T01:44:58;7.93;;;2.33;;
10727;SDS011;5415;59.322;18.246;2022-08-21T01:47:25;9.53;;;2.13;;
10727;SDS011;5415;59.322;18.246;2022-08-21T01:49:53;9.17;;;2.50;;
10727;SDS011;5415;59.322;18.246;2022-08-21T01:52:21;7.00;;;2.30;;
10727;SDS011;5415;59.322;18.246;2022-08-21T01:54:48;6.40;;;2.03;;
10727;SDS011;5415;59.322;18.246;2022-08-21T01:57:17;9.10;;;2.37;;
10727;SDS011;5415;59.322;18.246;2022-08-21T01:59:44;8.03;;;2.10;;
10727;SDS011;5415;59.322;18.246;2022-08-21T02:02:13;5.70;;;2.10;;
10727;SDS011;5415;59.322;18.246;2022-08-21T02:04:41;6.53;;;2.40;;
10727;SDS011;5415;59.322;18.246;2022-08-21T02:07:09;9.13;;;2.10;;
10727;SDS011;5415;59.322;18.246;2022-08-21T02:09:36;6.43;;;2.23;;
10727;SDS011;5415;59.322;18.246;2022-08-21T02:12:05;7.73;;;2.40;;
10727;SDS011;5415;59.322;18.246;2022-08-21T02:14:34;8.37;;;2.10;;
10727;SDS011;5415;59.322;18.246;2022-08-21T02:17:03;5.53;;;1.87;;
10727;SDS011;5415;59.322;18.246;2022-08-21T02:19:30;8.83;;;2.30;;
10727;SDS011;5415;59.322;18.246;2022-08-21T02:21:58;6.57;;;2.10;;
10727;SDS011;5415;59.322;18.246;2022-08-21T02:24:25;4.63;;;2.00;;
10727;SDS011;5415;59.322;18.246;2022-08-21T02:26:54;7.37;;;2.17;;
10727;SDS011;5415;59.322;18.246;2022-08-21T02:29:21;6.27;;;1.90;;
10727;SDS011;5415;59.322;18.246;2022-08-21T02:31:50;6.77;;;2.20;;
10727;SDS011;5415;59.322;18.246;2022-08-21T02:34:18;9.07;;;2.00;;
10727;SDS011;5415;59.322;18.246;2022-08-21T02:36:46;9.20;;;2.20;;
10727;SDS011;5415;59.322;18.246;2022-08-21T02:39:14;10.30;;;2.50;;
10727;SDS011;5415;59.322;18.246;2022-08-21T02:41:41;4.70;;;1.90;;
10727;SDS011;5415;59.322;18.246;2022-08-21T02:44:09;7.77;;;2.10;;
10727;SDS011;5415;59.322;18.246;2022-08-21T02:46:36;7.07;;;2.10;;
10727;SDS011;5415;59.322;18.246;2022-08-21T02:49:05;7.87;;;2.20;;
10727;SDS011;5415;59.322;18.246;2022-08-21T02:51:33;5.53;;;2.20;;
10727;SDS011;5415;59.322;18.246;2022-08-21T02:54:00;8.20;;;2.37;;
10727;SDS011;5415;59.322;18.246;2022-08-21T02:56:27;7.03;;;2.10;;
10727;SDS011;5415;59.322;18.246;2022-08-21T02:58:55;7.87;;;2.10;;
10727;SDS011;5415;59.322;18.246;2022-08-21T03:01:23;5.93;;;2.30;;
10727;SDS011;5415;59.322;18.246;2022-08-21T03:03:51;5.83;;;2.67;;
10727;SDS011;5415;59.322;18.246;2022-08-21T03:06:21;7.97;;;2.50;;
10727;SDS011;5415;59.322;18.246;2022-08-21T03:08:49;13.40;;;2.33;;
10727;SDS011;5415;59.322;18.246;2022-08-21T03:11:17;9.97;;;2.90;;
10727;SDS011;5415;59.322;18.246;2022-08-21T03:13:45;7.50;;;2.73;;
10727;SDS011;5415;59.322;18.246;2022-08-21T03:16:13;7.00;;;2.60;;
10727;SDS011;5415;59.322;18.246;2022-08-21T03:18:41;7.70;;;2.87;;
10727;SDS011;5415;59.322;18.246;2022-08-21T03:21:08;9.40;;;3.00;;
10727;SDS011;5415;59.322;18.246;2022-08-21T03:23:37;6.43;;;2.90;;
10727;SDS011;5415;59.322;18.246;2022-08-21T03:26:06;14.37;;;2.90;;
10727;SDS011;5415;59.322;18.246;2022-08-21T03:28:35;10.10;;;3.00;;
10727;SDS011;5415;59.322;18.246;2022-08-21T03:31:03;7.43;;;3.00;;
10727;SDS011;5415;59.322;18.246;2022-08-21T03:33:31;7.37;;;3.00;;
10727;SDS011;5415;59.322;18.246;2022-08-21T03:36:00;8.90;;;3.03;;
10727;SDS011;5415;59.322;18.246;2022-08-21T03:38:28;7.90;;;2.67;;
10727;SDS011;5415;59.322;18.246;2022-08-21T03:40:58;10.77;;;2.80;;
10727;SDS011;5415;59.322;18.246;2022-08-21T03:43:26;12.67;;;2.77;;
10727;SDS011;5415;59.322;18.246;2022-08-21T03:45:54;5.63;;;2.87;;
10727;SDS011;5415;59.322;18.246;2022-08-21T03:48:22;6.50;;;2.60;;
10727;SDS011;5415;59.322;18.246;2022-08-21T03:50:51;9.43;;;3.17;;
10727;SDS011;5415;59.322;18.246;2022-08-21T03:53:19;8.03;;;3.17;;
10727;SDS011;5415;59.322;18.246;2022-08-21T03:55:47;10.20;;;2.90;;
10727;SDS011;5415;59.322;18.246;2022-08-21T03:58:18;12.53;;;3.13;;
10727;SDS011;5415;59.322;18.246;2022-08-21T04:00:46;10.90;;;2.60;;
10727;SDS011;5415;59.322;18.246;2022-08-21T04:03:14;11.53;;;3.27;;
10727;SDS011;5415;59.322;18.246;2022-08-21T04:05:43;10.37;;;3.07;;
10727;SDS011;5415;59.322;18.246;2022-08-21T04:08:11;11.73;;;3.33;;
10727;SDS011;5415;59.322;18.246;2022-08-21T04:10:38;9.07;;;3.23;;
10727;SDS011;5415;59.322;18.246;2022-08-21T04:13:06;13.67;;;3.57;;
10727;SDS011;5415;59.322;18.246;2022-08-21T04:15:36;12.37;;;3.37;;
10727;SDS011;5415;59.322;18.246;2022-08-21T04:18:04;11.10;;;3.63;;
10727;SDS011;5415;59.322;18.246;2022-08-21T04:20:33;11.20;;;3.27;;
10727;SDS011;5415;59.322;18.246;2022-08-21T04:23:02;9.80;;;3.60;;
10727;SDS011;5415;59.322;18.246;2022-08-21T04:25:30;7.73;;;3.40;;
10727;SDS011;5415;59.322;18.246;2022-08-21T04:27:58;9.77;;;3.90;;
10727;SDS011;5415;59.322;18.246;2022-08-21T04:30:26;11.23;;;3.63;;
10727;SDS011;5415;59.322;18.246;2022-08-21T04:32:56;13.03;;;3.47;;
10727;SDS011;5415;59.322;18.246;2022-08-21T04:35:25;14.07;;;4.03;;
10727;SDS011;5415;59.322;18.246;2022-08-21T04:37:52;14.00;;;4.33;;
10727;SDS011;5415;59.322;18.246;2022-08-21T04:40:20;8.53;;;3.83;;
10727;SDS011;5415;59.322;18.246;2022-08-21T04:42:49;12.07;;;3.97;;
10727;SDS011;5415;59.322;18.246;2022-08-21T04:45:18;16.83;;;4.30;;
10727;SDS011;5415;59.322;18.246;2022-08-21T04:47:47;10.20;;;4.23;;
10727;SDS011;5415;59.322;18.246;2022-08-21T04:50:17;12.50;;;4.47;;
10727;SDS011;5415;59.322;18.246;2022-08-21T04:52:44;15.03;;;4.73;;
10727;SDS011;5415;59.322;18.246;2022-08-21T04:55:12;8.73;;;4.43;;
10727;SDS011;5415;59.322;18.246;2022-08-21T04:57:40;11.87;;;4.33;;
10727;SDS011;5415;59.322;18.246;2022-08-21T05:00:08;12.97;;;4.83;;
10727;SDS011;5415;59.322;18.246;2022-08-21T05:02:38;11.33;;;5.33;;
10727;SDS011;5415;59.322;18.246;2022-08-21T05:05:06;11.63;;;5.20;;
10727;SDS011;5415;59.322;18.246;2022-08-21T05:07:36;11.53;;;4.90;;
10727;SDS011;5415;59.322;18.246;2022-08-21T05:10:04;11.10;;;4.60;;
10727;SDS011;5415;59.322;18.246;2022-08-21T05:12:33;9.33;;;4.13;;
10727;SDS011;5415;59.322;18.246;2022-08-21T05:15:01;12.87;;;5.07;;
10727;SDS011;5415;59.322;18.246;2022-08-21T05:17:28;14.67;;;5.20;;
10727;SDS011;5415;59.322;18.246;2022-08-21T05:19:55;10.17;;;4.50;;
10727;SDS011;5415;59.322;18.246;2022-08-21T05:22:23;10.47;;;4.40;;
10727;SDS011;5415;59.322;18.246;2022-08-21T05:24:52;13.77;;;5.47;;
10727;SDS011;5415;59.322;18.246;2022-08-21T05:27:20;11.80;;;4.53;;
10727;SDS011;5415;59.322;18.246;2022-08-21T05:29:47;10.97;;;5.63;;
10727;SDS011;5415;59.322;18.246;2022-08-21T05:32:15;11.07;;;4.83;;
10727;SDS011;5415;59.322;18.246;2022-08-21T05:34:42;8.60;;;5.57;;
10727;SDS011;5415;59.322;18.246;2022-08-21T05:37:10;12.13;;;4.80;;
10727;SDS011;5415;59.322;18.246;2022-08-21T05:39:38;12.13;;;4.83;;
10727;SDS011;5415;59.322;18.246;2022-08-21T05:42:07;16.33;;;5.30;;
10727;SDS011;5415;59.322;18.246;2022-08-21T05:44:34;15.40;;;4.87;;
10727;SDS011;5415;59.322;18.246;2022-08-21T05:47:03;11.33;;;4.90;;
10727;SDS011;5415;59.322;18.246;2022-08-21T05:49:32;8.17;;;4.40;;
10727;SDS011;5415;59.322;18.246;2022-08-21T05:51:59;10.73;;;4.73;;
10727;SDS011;5415;59.322;18.246;2022-08-21T05:54:27;14.57;;;4.60;;
10727;SDS011;5415;59.322;18.246;2022-08-21T05:56:54;15.17;;;4.80;;
10727;SDS011;5415;59.322;18.246;2022-08-21T05:59:23;10.80;;;4.03;;
10727;SDS011;5415;59.322;18.246;2022-08-21T06:01:52;9.97;;;4.47;;
10727;SDS011;5415;59.322;18.246;2022-08-21T06:04:19;10.53;;;4.53;;
10727;SDS011;5415;59.322;18.246;2022-08-21T06:06:47;13.27;;;4.10;;
10727;SDS011;5415;59.322;18.246;2022-08-21T06:09:14;10.33;;;4.40;;
10727;SDS011;5415;59.322;18.246;2022-08-21T06:11:42;14.50;;;4.40;;
10727;SDS011;5415;59.322;18.246;2022-08-21T06:14:09;9.40;;;4.13;;
10727;SDS011;5415;59.322;18.246;2022-08-21T06:16:38;9.67;;;4.07;;
10727;SDS011;5415;59.322;18.246;2022-08-21T06:19:06;8.93;;;3.63;;
10727;SDS011;5415;59.322;18.246;2022-08-21T06:21:33;12.57;;;3.50;;
10727;SDS011;5415;59.322;18.246;2022-08-21T06:24:00;16.63;;;3.90;;
10727;SDS011;5415;59.322;18.246;2022-08-21T06:26:28;8.93;;;3.50;;
10727;SDS011;5415;59.322;18.246;2022-08-21T06:28:55;8.47;;;3.67;;
10727;SDS011;5415;59.322;18.246;2022-08-21T06:31:23;19.53;;;3.80;;
10727;SDS011;5415;59.322;18.246;2022-08-21T06:33:52;12.27;;;4.40;;
10727;SDS011;5415;59.322;18.246;2022-08-21T06:36:19;11.17;;;3.37;;
10727;SDS011;5415;59.322;18.246;2022-08-21T06:38:47;8.57;;;3.60;;
10727;SDS011;5415;59.322;18.246;2022-08-21T06:41:14;10.57;;;4.00;;
10727;SDS011;5415;59.322;18.246;2022-08-21T06:43:41;10.83;;;4.43;;
10727;SDS011;5415;59.322;18.246;2022-08-21T06:46:09;14.70;;;3.83;;
10727;SDS011;5415;59.322;18.246;2022-08-21T06:48:38;10.87;;;4.07;;
10727;SDS011;5415;59.322;18.246;2022-08-21T06:51:07;13.10;;;4.40;;
10727;SDS011;5415;59.322;18.246;2022-08-21T06:53:34;11.47;;;3.80;;
10727;SDS011;5415;59.322;18.246;2022-08-21T06:56:02;11.87;;;3.90;;
10727;SDS011;5415;59.322;18.246;2022-08-21T06:58:30;10.57;;;3.83;;
10727;SDS011;5415;59.322;18.246;2022-08-21T07:00:58;11.40;;;3.63;;
10727;SDS011;5415;59.322;18.246;2022-08-21T07:03:27;11.87;;;3.43;;
10727;SDS011;5415;59.322;18.246;2022-08-21T07:05:56;12.63;;;4.23;;
10727;SDS011;5415;59.322;18.246;2022-08-21T07:08:26;11.80;;;3.80;;
10727;SDS011;5415;59.322;18.246;2022-08-21T07:10:54;9.53;;;3.73;;
10727;SDS011;5415;59.322;18.246;2022-08-21T07:13:24;10.00;;;3.80;;
10727;SDS011;5415;59.322;18.246;2022-08-21T07:15:51;10.63;;;3.60;;
10727;SDS011;5415;59.322;18.246;2022-08-21T07:18:20;7.23;;;3.60;;
10727;SDS011;5415;59.322;18.246;2022-08-21T07:20:47;10.83;;;3.47;;
10727;SDS011;5415;59.322;18.246;2022-08-21T07:23:18;9.80;;;3.43;;
10727;SDS011;5415;59.322;18.246;2022-08-21T07:25:50;8.50;;;3.47;;
10727;SDS011;5415;59.322;18.246;2022-08-21T07:28:18;10.93;;;3.37;;
10727;SDS011;5415;59.322;18.246;2022-08-21T07:30:45;7.30;;;3.30;;
10727;SDS011;5415;59.322;18.246;2022-08-21T07:33:13;14.50;;;3.90;;
10727;SDS011;5415;59.322;18.246;2022-08-21T07:35:41;9.87;;;3.23;;
10727;SDS011;5415;59.322;18.246;2022-08-21T07:38:09;8.83;;;2.97;;
10727;SDS011;5415;59.322;18.246;2022-08-21T07:40:37;11.80;;;3.47;;
10727;SDS011;5415;59.322;18.246;2022-08-21T07:43:06;9.73;;;2.67;;
10727;SDS011;5415;59.322;18.246;2022-08-21T07:45:33;5.37;;;2.77;;
10727;SDS011;5415;59.322;18.246;2022-08-21T07:48:01;9.53;;;3.20;;
10727;SDS011;5415;59.322;18.246;2022-08-21T07:50:28;10.07;;;3.53;;
10727;SDS011;5415;59.322;18.246;2022-08-21T07:52:56;8.83;;;4.03;;
10727;SDS011;5415;59.322;18.246;2022-08-21T07:55:23;10.23;;;2.97;;
10727;SDS011;5415;59.322;18.246;2022-08-21T07:57:50;9.40;;;3.30;;
10727;SDS011;5415;59.322;18.246;2022-08-21T08:00:20;9.50;;;3.13;;
10727;SDS011;5415;59.322;18.246;2022-08-21T08:02:48;8.73;;;3.27;;
10727;SDS011;5415;59.322;18.246;2022-08-21T08:05:16;10.60;;;3.33;;
10727;SDS011;5415;59.322;18.246;2022-08-21T08:07:44;6.33;;;3.10;;
10727;SDS011;5415;59.322;18.246;2022-08-21T08:10:13;9.67;;;3.07;;
10727;SDS011;5415;59.322;18.246;2022-08-21T08:12:41;9.87;;;3.27;;
10727;SDS011;5415;59.322;18.246;2022-08-21T08:15:11;11.67;;;3.67;;
10727;SDS011;5415;59.322;18.246;2022-08-21T08:17:40;6.90;;;2.83;;
10727;SDS011;5415;59.322;18.246;2022-08-21T08:20:08;12.47;;;3.27;;
10727;SDS011;5415;59.322;18.246;2022-08-21T08:22:36;14.23;;;4.00;;
10727;SDS011;5415;59.322;18.246;2022-08-21T08:25:04;14.63;;;3.33;;
10727;SDS011;5415;59.322;18.246;2022-08-21T08:27:32;11.47;;;3.40;;
10727;SDS011;5415;59.322;18.246;2022-08-21T08:29:59;9.90;;;3.07;;
10727;SDS011;5415;59.322;18.246;2022-08-21T08:32:27;6.50;;;2.97;;
10727;SDS011;5415;59.322;18.246;2022-08-21T08:34:56;11.63;;;3.27;;
10727;SDS011;5415;59.322;18.246;2022-08-21T08:37:23;11.10;;;3.47;;
10727;SDS011;5415;59.322;18.246;2022-08-21T08:39:51;11.00;;;2.93;;
10727;SDS011;5415;59.322;18.246;2022-08-21T08:42:20;6.60;;;2.50;;
10727;SDS011;5415;59.322;18.246;2022-08-21T08:44:50;15.30;;;2.90;;
10727;SDS011;5415;59.322;18.246;2022-08-21T08:47:22;9.20;;;3.17;;
10727;SDS011;5415;59.322;18.246;2022-08-21T08:49:53;11.53;;;3.43;;
10727;SDS011;5415;59.322;18.246;2022-08-21T08:52:27;9.17;;;3.20;;
10727;SDS011;5415;59.322;18.246;2022-08-21T08:54:57;11.97;;;3.17;;
10727;SDS011;5415;59.322;18.246;2022-08-21T08:57:28;8.63;;;2.87;;
10727;SDS011;5415;59.322;18.246;2022-08-21T08:59:58;6.70;;;2.50;;
10727;SDS011;5415;59.322;18.246;2022-08-21T09:02:26;10.53;;;3.07;;
10727;SDS011;5415;59.322;18.246;2022-08-21T09:04:54;11.60;;;3.33;;
10727;SDS011;5415;59.322;18.246;2022-08-21T09:07:25;6.47;;;2.87;;
10727;SDS011;5415;59.322;18.246;2022-08-21T09:10:13;8.97;;;3.00;;
10727;SDS011;5415;59.322;18.246;2022-08-21T09:12:46;12.80;;;2.90;;
10727;SDS011;5415;59.322;18.246;2022-08-21T09:15:19;8.10;;;2.63;;
10727;SDS011;5415;59.322;18.246;2022-08-21T09:17:54;8.30;;;2.80;;
10727;SDS011;5415;59.322;18.246;2022-08-21T09:20:28;7.37;;;2.40;;
10727;SDS011;5415;59.322;18.246;2022-08-21T09:23:00;9.13;;;2.90;;
10727;SDS011;5415;59.322;18.246;2022-08-21T09:25:33;6.60;;;2.50;;
10727;SDS011;5415;59.322;18.246;2022-08-21T09:28:07;9.10;;;2.47;;
10727;SDS011;5415;59.322;18.246;2022-08-21T09:30:36;8.00;;;2.90;;
10727;SDS011;5415;59.322;18.246;2022-08-21T09:33:07;4.67;;;2.30;;
10727;SDS011;5415;59.322;18.246;2022-08-21T09:35:35;6.50;;;2.30;;
10727;SDS011;5415;59.322;18.246;2022-08-21T09:38:05;8.77;;;2.30;;
10727;SDS011;5415;59.322;18.246;2022-08-21T09:40:36;6.97;;;2.60;;
10727;SDS011;5415;59.322;18.246;2022-08-21T09:43:04;9.00;;;2.70;;
10727;SDS011;5415;59.322;18.246;2022-08-21T09:45:32;5.53;;;2.17;;
10727;SDS011;5415;59.322;18.246;2022-08-21T09:48:10;6.20;;;2.07;;
10727;SDS011;5415;59.322;18.246;2022-08-21T09:50:37;7.30;;;2.27;;
10727;SDS011;5415;59.322;18.246;2022-08-21T09:53:13;6.30;;;2.17;;
10727;SDS011;5415;59.322;18.246;2022-08-21T09:55:47;7.40;;;2.53;;
10727;SDS011;5415;59.322;18.246;2022-08-21T09:58:33;7.43;;;2.47;;
10727;SDS011;5415;59.322;18.246;2022-08-21T10:01:01;8.27;;;2.43;;
10727;SDS011;5415;59.322;18.246;2022-08-21T10:03:29;6.83;;;2.10;;
10727;SDS011;5415;59.322;18.246;2022-08-21T10:05:59;5.80;;;2.10;;
10727;SDS011;5415;59.322;18.246;2022-08-21T10:08:28;8.47;;;2.23;;
10727;SDS011;5415;59.322;18.246;2022-08-21T10:10:57;5.20;;;2.17;;
10727;SDS011;5415;59.322;18.246;2022-08-21T10:13:32;4.37;;;1.93;;
10727;SDS011;5415;59.322;18.246;2022-08-21T10:16:08;6.03;;;2.10;;
10727;SDS011;5415;59.322;18.246;2022-08-21T10:18:39;6.17;;;2.10;;
10727;SDS011;5415;59.322;18.246;2022-08-21T10:21:10;5.83;;;1.80;;
10727;SDS011;5415;59.322;18.246;2022-08-21T10:23:45;5.83;;;2.20;;
10727;SDS011;5415;59.322;18.246;2022-08-21T10:26:20;6.97;;;2.03;;
10727;SDS011;5415;59.322;18.246;2022-08-21T10:28:52;4.37;;;1.80;;
10727;SDS011;5415;59.322;18.246;2022-08-21T10:31:26;6.47;;;2.33;;
10727;SDS011;5415;59.322;18.246;2022-08-21T10:33:59;7.03;;;2.20;;
10727;SDS011;5415;59.322;18.246;2022-08-21T10:36:34;5.93;;;2.10;;
10727;SDS011;5415;59.322;18.246;2022-08-21T10:39:06;8.33;;;2.40;;
10727;SDS011;5415;59.322;18.246;2022-08-21T10:41:40;8.30;;;1.93;;
10727;SDS011;5415;59.322;18.246;2022-08-21T10:44:13;5.87;;;2.17;;
10727;SDS011;5415;59.322;18.246;2022-08-21T10:46:48;4.03;;;1.97;;
10727;SDS011;5415;59.322;18.246;2022-08-21T10:49:21;5.70;;;2.00;;
10727;SDS011;5415;59.322;18.246;2022-08-21T10:51:51;4.03;;;1.63;;
10727;SDS011;5415;59.322;18.246;2022-08-21T10:54:25;5.97;;;2.33;;
10727;SDS011;5415;59.322;18.246;2022-08-21T10:56:55;7.93;;;2.20;;
10727;SDS011;5415;59.322;18.246;2022-08-21T10:59:24;5.23;;;1.90;;
10727;SDS011;5415;59.322;18.246;2022-08-21T11:01:57;5.00;;;2.03;;
10727;SDS011;5415;59.322;18.246;2022-08-21T11:04:32;4.83;;;1.90;;
10727;SDS011;5415;59.322;18.246;2022-08-21T11:07:03;3.73;;;2.10;;
10727;SDS011;5415;59.322;18.246;2022-08-21T11:09:36;6.40;;;1.73;;
10727;SDS011;5415;59.322;18.246;2022-08-21T11:12:05;7.17;;;2.03;;
10727;SDS011;5415;59.322;18.246;2022-08-21T11:14:38;6.70;;;2.10;;
10727;SDS011;5415;59.322;18.246;2022-08-21T11:17:07;4.60;;;1.90;;
10727;SDS011;5415;59.322;18.246;2022-08-21T11:19:36;4.90;;;2.20;;
10727;SDS011;5415;59.322;18.246;2022-08-21T11:22:06;3.73;;;1.87;;
10727;SDS011;5415;59.322;18.246;2022-08-21T11:24:40;5.90;;;1.80;;
10727;SDS011;5415;59.322;18.246;2022-08-21T11:27:13;4.07;;;2.10;;
10727;SDS011;5415;59.322;18.246;2022-08-21T11:29:41;4.90;;;1.90;;
10727;SDS011;5415;59.322;18.246;2022-08-21T11:32:21;5.47;;;2.00;;
10727;SDS011;5415;59.322;18.246;2022-08-21T11:34:54;4.97;;;2.00;;
10727;SDS011;5415;59.322;18.246;2022-08-21T11:37:27;5.73;;;2.00;;
10727;SDS011;5415;59.322;18.246;2022-08-21T11:40:04;2.90;;;1.40;;
10727;SDS011;5415;59.322;18.246;2022-08-21T11:42:35;3.40;;;1.57;;
10727;SDS011;5415;59.322;18.246;2022-08-21T11:45:10;2.77;;;1.57;;
10727;SDS011;5415;59.322;18.246;2022-08-21T11:47:45;5.50;;;1.97;;
10727;SDS011;5415;59.322;18.246;2022-08-21T11:50:17;3.97;;;1.53;;
10727;SDS011;5415;59.322;18.246;2022-08-21T11:52:48;4.70;;;1.90;;
10727;SDS011;5415;59.322;18.246;2022-08-21T11:55:19;4.50;;;1.93;;
10727;SDS011;5415;59.322;18.246;2022-08-21T11:57:50;6.03;;;2.20;;
10727;SDS011;5415;59.322;18.246;2022-08-21T12:00:20;5.27;;;1.90;;
10727;SDS011;5415;59.322;18.246;2022-08-21T12:02:51;3.50;;;1.53;;
10727;SDS011;5415;59.322;18.246;2022-08-21T12:05:24;5.53;;;2.10;;
10727;SDS011;5415;59.322;18.246;2022-08-21T12:07:59;4.80;;;1.80;;
10727;SDS011;5415;59.322;18.246;2022-08-21T12:10:33;4.17;;;1.90;;
10727;SDS011;5415;59.322;18.246;2022-08-21T12:13:05;3.83;;;1.77;;
10727;SDS011;5415;59.322;18.246;2022-08-21T12:15:36;5.33;;;1.63;;
10727;SDS011;5415;59.322;18.246;2022-08-21T12:18:04;4.53;;;1.87;;
10727;SDS011;5415;59.322;18.246;2022-08-21T12:20:39;4.13;;;1.63;;
10727;SDS011;5415;59.322;18.246;2022-08-21T12:23:28;4.13;;;1.77;;
10727;SDS011;5415;59.322;18.246;2022-08-21T12:26:02;4.30;;;1.50;;
10727;SDS011;5415;59.322;18.246;2022-08-21T12:28:30;7.20;;;1.70;;
10727;SDS011;5415;59.322;18.246;2022-08-21T12:30:59;4.77;;;1.90;;
10727;SDS011;5415;59.322;18.246;2022-08-21T12:33:27;3.53;;;1.80;;
10727;SDS011;5415;59.322;18.246;2022-08-21T12:36:01;5.83;;;1.77;;
10727;SDS011;5415;59.322;18.246;2022-08-21T12:38:31;3.50;;;1.70;;
10727;SDS011;5415;59.322;18.246;2022-08-21T12:41:03;3.90;;;1.80;;
10727;SDS011;5415;59.322;18.246;2022-08-21T12:43:33;3.27;;;2.03;;
10727;SDS011;5415;59.322;18.246;2022-08-21T12:46:01;5.37;;;1.60;;
10727;SDS011;5415;59.322;18.246;2022-08-21T12:48:31;5.03;;;2.00;;
10727;SDS011;5415;59.322;18.246;2022-08-21T12:51:05;3.57;;;1.80;;
10727;SDS011;5415;59.322;18.246;2022-08-21T12:53:35;5.20;;;2.00;;
10727;SDS011;5415;59.322;18.246;2022-08-21T12:56:07;3.57;;;1.70;;
10727;SDS011;5415;59.322;18.246;2022-08-21T12:58:39;3.47;;;1.60;;
10727;SDS011;5415;59.322;18.246;2022-08-21T13:01:07;3.97;;;1.60;;
10727;SDS011;5415;59.322;18.246;2022-08-21T13:03:43;8.30;;;2.22;;
10727;SDS011;5415;59.322;18.246;2022-08-21T13:06:12;8.43;;;2.08;;
10727;SDS011;5415;59.322;18.246;2022-08-21T13:08:42;6.10;;;1.83;;
10727;SDS011;5415;59.322;18.246;2022-08-21T13:11:14;3.70;;;1.70;;
10727;SDS011;5415;59.322;18.246;2022-08-21T13:13:43;3.17;;;1.73;;
10727;SDS011;5415;59.322;18.246;2022-08-21T13:16:18;4.10;;;1.80;;
10727;SDS011;5415;59.322;18.246;2022-08-21T13:18:53;5.03;;;1.67;;
10727;SDS011;5415;59.322;18.246;2022-08-21T13:21:28;3.93;;;1.90;;
10727;SDS011;5415;59.322;18.246;2022-08-21T13:24:07;4.27;;;1.40;;
10727;SDS011;5415;59.322;18.246;2022-08-21T13:26:42;2.63;;;1.20;;
10727;SDS011;5415;59.322;18.246;2022-08-21T13:29:10;6.83;;;1.60;;
10727;SDS011;5415;59.322;18.246;2022-08-21T13:31:40;2.17;;;1.40;;
10727;SDS011;5415;59.322;18.246;2022-08-21T13:34:12;1.73;;;1.00;;
10727;SDS011;5415;59.322;18.246;2022-08-21T13:36:41;2.60;;;1.17;;
10727;SDS011;5415;59.322;18.246;2022-08-21T13:39:11;4.40;;;1.13;;
10727;SDS011;5415;59.322;18.246;2022-08-21T13:41:44;1.23;;;1.10;;
10727;SDS011;5415;59.322;18.246;2022-08-21T13:44:15;1.87;;;1.00;;
10727;SDS011;5415;59.322;18.246;2022-08-21T13:46:44;4.10;;;1.30;;
10727;SDS011;5415;59.322;18.246;2022-08-21T13:49:13;2.87;;;1.23;;
10727;SDS011;5415;59.322;18.246;2022-08-21T13:51:42;2.33;;;1.20;;
10727;SDS011;5415;59.322;18.246;2022-08-21T13:54:15;2.10;;;1.17;;
10727;SDS011;5415;59.322;18.246;2022-08-21T13:56:50;1.90;;;1.17;;
10727;SDS011;5415;59.322;18.246;2022-08-21T13:59:25;1.73;;;1.30;;
10727;SDS011;5415;59.322;18.246;2022-08-21T14:01:55;1.73;;;1.30;;
10727;SDS011;5415;59.322;18.246;2022-08-21T14:04:26;3.27;;;1.30;;
10727;SDS011;5415;59.322;18.246;2022-08-21T14:06:59;3.97;;;1.20;;
10727;SDS011;5415;59.322;18.246;2022-08-21T14:09:30;2.03;;;1.10;;
10727;SDS011;5415;59.322;18.246;2022-08-21T14:12:02;2.23;;;1.20;;
10727;SDS011;5415;59.322;18.246;2022-08-21T14:14:38;2.47;;;1.10;;
10727;SDS011;5415;59.322;18.246;2022-08-21T14:17:07;4.47;;;1.10;;
10727;SDS011;5415;59.322;18.246;2022-08-21T14:19:39;3.90;;;0.90;;
10727;SDS011;5415;59.322;18.246;2022-08-21T14:22:28;1.33;;;1.00;;
10727;SDS011;5415;59.322;18.246;2022-08-21T14:24:59;2.03;;;1.27;;
10727;SDS011;5415;59.322;18.246;2022-08-21T14:27:31;2.07;;;1.17;;
10727;SDS011;5415;59.322;18.246;2022-08-21T14:30:00;1.27;;;0.90;;
10727;SDS011;5415;59.322;18.246;2022-08-21T14:32:30;2.20;;;0.90;;
10727;SDS011;5415;59.322;18.246;2022-08-21T14:35:04;1.60;;;1.00;;
10727;SDS011;5415;59.322;18.246;2022-08-21T14:37:32;2.10;;;1.00;;
10727;SDS011;5415;59.322;18.246;2022-08-21T14:40:01;1.50;;;0.97;;
10727;SDS011;5415;59.322;18.246;2022-08-21T14:42:30;2.40;;;1.10;;
10727;SDS011;5415;59.322;18.246;2022-08-21T14:45:00;3.43;;;1.30;;
10727;SDS011;5415;59.322;18.246;2022-08-21T14:47:28;1.80;;;1.20;;
10727;SDS011;5415;59.322;18.246;2022-08-21T14:49:56;1.77;;;1.10;;
10727;SDS011;5415;59.322;18.246;2022-08-21T14:52:23;3.93;;;1.30;;
10727;SDS011;5415;59.322;18.246;2022-08-21T14:54:51;2.93;;;1.10;;
10727;SDS011;5415;59.322;18.246;2022-08-21T14:57:18;3.33;;;1.60;;